createdAt,value
2024-03-09T00:00:27.008Z,8.08
2024-03-09T00:02:55.773Z,8.05
2024-03-09T00:05:25.942Z,8.05
2024-03-09T00:07:57.778Z,8.04
2024-03-09T00:10:26.049Z,8.06
2024-03-09T00:12:54.413Z,8.08
2024-03-09T00:15:24.659Z,8.09
2024-03-09T00:17:54.590Z,8.06
2024-03-09T00:20:24.446Z,8.04
2024-03-09T00:22:56.990Z,7.86
2024-03-09T00:25:24.525Z,7.91
2024-03-09T00:27:53.683Z,7.94
2024-03-09T00:30:21.418Z,7.95
2024-03-09T00:32:50.446Z,7.92
2024-03-09T00:35:20.140Z,7.89
2024-03-09T00:37:47.572Z,7.93
2024-03-09T00:40:15.427Z,7.86
2024-03-09T00:42:42.771Z,7.86
2024-03-09T00:45:11.136Z,7.87
2024-03-09T00:47:38.964Z,8.00
2024-03-09T00:50:10.898Z,8.02
2024-03-09T00:52:39.629Z,7.96
2024-03-09T00:55:11.618Z,8.01
2024-03-09T00:57:39.419Z,7.94
2024-03-09T01:00:12.518Z,7.86
2024-03-09T01:02:42.268Z,7.83
2024-03-09T01:05:10.372Z,7.82
2024-03-09T01:07:39.191Z,7.76
2024-03-09T01:10:10.301Z,7.71
2024-03-09T01:12:37.711Z,7.64
2024-03-09T01:15:07.943Z,7.66
2024-03-09T01:17:37.541Z,7.68
2024-03-09T01:20:07.695Z,7.71
2024-03-09T01:22:35.221Z,7.72
2024-03-09T01:25:09.623Z,7.74
2024-03-09T01:27:38.461Z,7.70
2024-03-09T01:30:07.177Z,7.72
2024-03-09T01:32:34.575Z,7.72
2024-03-09T01:35:03.502Z,7.70
2024-03-09T01:37:30.966Z,7.75
2024-03-09T01:39:58.521Z,7.77
2024-03-09T01:42:28.223Z,7.83
2024-03-09T01:44:59.097Z,7.88
2024-03-09T01:47:27.585Z,7.90
2024-03-09T01:49:57.656Z,7.89
2024-03-09T01:52:34.333Z,7.96
2024-03-09T01:55:07.724Z,7.94
2024-03-09T01:57:35.038Z,7.93
2024-03-09T02:00:04.416Z,7.86
2024-03-09T02:02:32.049Z,8.23
2024-03-09T02:04:59.660Z,8.02
2024-03-09T02:07:26.973Z,8.08
2024-03-09T02:09:54.374Z,8.00
2024-03-09T02:12:24.365Z,8.08
2024-03-09T02:14:51.578Z,8.06
2024-03-09T02:17:20.034Z,8.16
2024-03-09T02:19:47.108Z,7.99
2024-03-09T02:22:17.428Z,7.91
2024-03-09T02:24:56.231Z,7.84
2024-03-09T02:27:27.098Z,7.85
2024-03-09T02:29:54.761Z,7.77
2024-03-09T02:32:25.318Z,7.71
2024-03-09T02:34:52.441Z,7.72
2024-03-09T02:37:21.000Z,7.68
2024-03-09T02:39:48.589Z,7.61
2024-03-09T02:42:17.158Z,7.64
2024-03-09T02:44:44.394Z,7.64
2024-03-09T02:47:11.874Z,7.65
2024-03-09T02:49:40.287Z,7.56
2024-03-09T02:52:08.664Z,7.52
2024-03-09T02:54:37.591Z,7.51
2024-03-09T02:57:07.719Z,7.53
2024-03-09T02:59:36.958Z,7.45
2024-03-09T03:02:15.839Z,7.58
2024-03-09T03:04:43.201Z,7.42
2024-03-09T03:07:10.488Z,7.45
2024-03-09T03:09:38.079Z,7.40
2024-03-09T03:12:09.219Z,7.41
2024-03-09T03:14:40.911Z,7.40
2024-03-09T03:17:08.665Z,7.38
2024-03-09T03:19:36.076Z,7.46
2024-03-09T03:22:03.263Z,7.28
2024-03-09T03:24:30.375Z,7.21
2024-03-09T03:26:58.930Z,7.25
2024-03-09T03:29:28.801Z,7.31
2024-03-09T03:31:58.247Z,7.33
2024-03-09T03:34:29.363Z,7.32
2024-03-09T03:36:57.069Z,7.21
2024-03-09T03:39:24.482Z,7.17
2024-03-09T03:41:53.639Z,7.15
2024-03-09T03:44:20.888Z,7.12
2024-03-09T03:46:48.489Z,7.03
2024-03-09T03:49:17.302Z,7.04
2024-03-09T03:51:44.562Z,7.17
2024-03-09T03:54:11.956Z,7.13
2024-03-09T03:56:39.298Z,7.14
2024-03-09T03:59:06.610Z,7.03
2024-03-09T04:01:33.859Z,7.02
2024-03-09T04:04:01.308Z,7.00
2024-03-09T04:06:29.890Z,7.00
2024-03-09T04:08:58.729Z,6.94
2024-03-09T04:11:33.436Z,6.77
2024-03-09T04:14:00.715Z,6.86
2024-03-09T04:16:28.071Z,6.78
2024-03-09T04:18:55.262Z,6.83
2024-03-09T04:21:22.597Z,6.86
2024-03-09T04:23:51.286Z,6.79
2024-03-09T04:26:18.514Z,6.72
2024-03-09T04:28:45.989Z,6.67
2024-03-09T04:31:13.344Z,6.66
2024-03-09T04:33:41.630Z,6.60
2024-03-09T04:36:09.479Z,6.54
2024-03-09T04:38:36.698Z,6.51
2024-03-09T04:41:05.482Z,6.42
2024-03-09T04:43:33.697Z,6.33
2024-03-09T04:46:01.547Z,6.31
2024-03-09T04:48:29.139Z,6.28
2024-03-09T04:50:56.501Z,6.22
2024-03-09T04:53:23.697Z,6.23
2024-03-09T04:55:53.121Z,6.07
2024-03-09T04:58:23.043Z,5.97
2024-03-09T05:00:50.245Z,5.96
2024-03-09T05:03:19.235Z,5.88
2024-03-09T05:05:46.445Z,5.79
2024-03-09T05:08:13.768Z,5.64
2024-03-09T05:10:41.411Z,5.66
2024-03-09T05:13:09.499Z,5.48
2024-03-09T05:15:38.857Z,5.37
2024-03-09T05:18:11.209Z,5.28
2024-03-09T05:20:39.428Z,5.33
2024-03-09T05:23:13.033Z,5.38
2024-03-09T05:25:43.303Z,5.28
2024-03-09T05:28:15.037Z,5.47
2024-03-09T05:30:45.318Z,5.65
2024-03-09T05:33:13.604Z,5.65
2024-03-09T05:35:41.599Z,5.65
2024-03-09T05:38:10.398Z,5.61
2024-03-09T05:40:38.538Z,5.52
2024-03-09T05:43:08.584Z,5.49
2024-03-09T05:45:37.053Z,5.48
2024-03-09T05:48:07.628Z,5.47
2024-03-09T05:50:37.343Z,5.46
2024-03-09T05:53:05.944Z,5.43
2024-03-09T05:55:33.497Z,5.43
2024-03-09T05:58:01.041Z,5.38
2024-03-09T06:00:30.870Z,5.54
2024-03-09T06:03:03.656Z,5.54
2024-03-09T06:05:33.309Z,5.56
2024-03-09T06:08:03.622Z,5.46
2024-03-09T06:10:31.787Z,5.41
2024-03-09T06:12:59.068Z,5.35
2024-03-09T06:15:27.139Z,5.39
2024-03-09T06:17:58.450Z,5.46
2024-03-09T06:20:28.274Z,5.42
2024-03-09T06:22:58.798Z,5.58
2024-03-09T06:25:31.376Z,5.65
2024-03-09T06:28:01.309Z,5.47
2024-03-09T06:30:31.590Z,5.51
2024-03-09T06:33:02.669Z,5.64
2024-03-09T06:35:31.562Z,5.49
2024-03-09T06:38:02.123Z,5.67
2024-03-09T06:40:32.538Z,6.00
2024-03-09T06:43:00.105Z,6.21
2024-03-09T06:45:30.427Z,6.35
2024-03-09T06:48:01.334Z,6.55
2024-03-09T06:50:29.782Z,6.93
2024-03-09T06:52:57.361Z,7.04
2024-03-09T06:55:30.419Z,7.10
2024-03-09T06:58:03.637Z,7.26
2024-03-09T07:00:33.781Z,7.11
2024-03-09T07:03:01.082Z,6.77
2024-03-09T07:05:39.044Z,6.96
2024-03-09T07:08:11.249Z,7.60
2024-03-09T07:10:40.373Z,7.89
2024-03-09T07:13:07.641Z,8.25
2024-03-09T07:15:34.880Z,8.37
2024-03-09T07:18:02.360Z,8.43
2024-03-09T07:20:30.325Z,8.84
2024-03-09T07:22:58.526Z,8.97
2024-03-09T07:25:28.999Z,9.00
2024-03-09T07:27:59.641Z,8.76
2024-03-09T07:30:27.668Z,8.77
2024-03-09T07:32:57.465Z,8.76
2024-03-09T07:35:29.797Z,9.21
2024-03-09T07:38:01.431Z,9.67
2024-03-09T07:40:34.110Z,9.47
2024-03-09T07:43:03.141Z,8.90
2024-03-09T07:45:31.680Z,9.09
2024-03-09T07:48:04.633Z,8.75
2024-03-09T07:50:34.219Z,9.46
2024-03-09T07:53:01.949Z,9.09
2024-03-09T07:55:30.374Z,9.54
2024-03-09T07:58:12.735Z,9.77
2024-03-09T08:00:47.162Z,9.64
2024-03-09T08:03:15.437Z,9.44
2024-03-09T08:05:43.401Z,10.02
2024-03-09T08:08:12.029Z,9.92
2024-03-09T08:10:49.048Z,9.77
2024-03-09T08:13:18.623Z,9.76
2024-03-09T08:15:47.795Z,9.80
2024-03-09T08:18:15.029Z,9.96
2024-03-09T08:20:43.011Z,9.57
2024-03-09T08:23:10.289Z,9.61
2024-03-09T08:25:37.923Z,10.15
2024-03-09T08:28:05.982Z,9.73
2024-03-09T08:30:33.308Z,10.00
2024-03-09T08:33:02.813Z,9.99
2024-03-09T08:35:33.272Z,9.95
2024-03-09T08:38:00.741Z,10.13
2024-03-09T08:40:28.199Z,9.69
2024-03-09T08:42:56.495Z,10.14
2024-03-09T08:45:25.481Z,10.07
2024-03-09T08:47:55.296Z,9.97
2024-03-09T08:50:26.641Z,10.37
2024-03-09T08:52:54.400Z,10.28
2024-03-09T08:55:23.264Z,10.48
2024-03-09T08:57:51.320Z,10.79
2024-03-09T09:00:26.484Z,10.64
2024-03-09T09:02:58.374Z,10.54
2024-03-09T09:05:29.107Z,10.62
2024-03-09T09:07:57.489Z,10.71
2024-03-09T09:10:26.811Z,10.88
2024-03-09T09:12:55.713Z,11.07
2024-03-09T09:15:26.116Z,11.08
2024-03-09T09:17:55.272Z,11.23
2024-03-09T09:20:22.582Z,11.09
2024-03-09T09:22:52.321Z,11.19
2024-03-09T09:25:28.296Z,11.59
2024-03-09T09:27:58.326Z,11.64
2024-03-09T09:30:27.665Z,11.88
2024-03-09T09:32:54.933Z,11.62
2024-03-09T09:35:22.452Z,11.58
2024-03-09T09:37:51.182Z,11.88
2024-03-09T09:40:21.604Z,12.11
2024-03-09T09:42:49.631Z,12.13
2024-03-09T09:45:23.222Z,12.05
2024-03-09T09:47:50.787Z,12.08
2024-03-09T09:50:21.087Z,12.08
2024-03-09T09:52:51.319Z,12.32
2024-03-09T09:55:21.115Z,12.37
2024-03-09T09:57:48.487Z,12.30
2024-03-09T10:00:16.412Z,12.34
2024-03-09T10:02:43.619Z,12.47
2024-03-09T10:05:14.589Z,12.56
2024-03-09T10:07:59.474Z,12.65
2024-03-09T10:10:32.430Z,12.62
2024-03-09T10:13:10.364Z,12.49
2024-03-09T10:15:39.632Z,12.67
2024-03-09T10:18:07.610Z,12.40
2024-03-09T10:20:36.634Z,12.69
2024-03-09T10:23:06.575Z,12.63
2024-03-09T10:25:37.375Z,12.84
2024-03-09T10:28:06.645Z,12.70
2024-03-09T10:30:34.475Z,12.65
2024-03-09T10:33:01.721Z,12.85
2024-03-09T10:35:28.944Z,13.01
2024-03-09T10:37:56.825Z,12.91
2024-03-09T10:40:27.020Z,13.00
2024-03-09T10:42:55.439Z,13.14
2024-03-09T10:45:26.572Z,12.94
2024-03-09T10:47:55.652Z,13.12
2024-03-09T10:50:25.451Z,13.14
2024-03-09T10:53:14.906Z,13.14
2024-03-09T10:55:54.916Z,13.27
2024-03-09T10:58:29.449Z,13.70
2024-03-09T11:00:57.940Z,13.62
2024-03-09T11:11:05.986Z,13.64
2024-03-09T11:13:33.681Z,13.35
2024-03-09T11:16:00.929Z,13.58
2024-03-09T11:18:28.371Z,13.59
2024-03-09T11:21:02.883Z,13.74
2024-03-09T11:23:32.569Z,13.62
2024-03-09T11:26:00.580Z,13.78
2024-03-09T11:28:53.245Z,13.62
2024-03-09T11:31:27.481Z,13.91
2024-03-09T11:33:59.531Z,13.75
2024-03-09T11:36:47.387Z,13.91
2024-03-09T11:39:15.495Z,13.61
2024-03-09T11:41:45.867Z,13.50
2024-03-09T11:44:17.782Z,13.73
2024-03-09T11:46:44.920Z,13.75
2024-03-09T11:49:12.093Z,13.86
2024-03-09T11:51:40.789Z,13.63
2024-03-09T11:54:10.999Z,13.54
2024-03-09T11:56:42.432Z,13.50
2024-03-09T11:59:12.319Z,13.64
2024-03-09T12:01:41.616Z,13.90
2024-03-09T12:04:09.832Z,14.12
2024-03-09T12:06:42.024Z,14.29
2024-03-09T12:09:11.902Z,14.43
2024-03-09T12:11:43.712Z,14.12
2024-03-09T12:14:11.180Z,14.42
2024-03-09T12:16:38.941Z,14.39
2024-03-09T12:19:08.212Z,14.47
2024-03-09T12:21:39.931Z,14.71
2024-03-09T12:24:08.397Z,14.81
2024-03-09T12:26:35.550Z,14.51
2024-03-09T12:29:04.922Z,14.74
2024-03-09T12:31:33.320Z,14.58
2024-03-09T12:34:00.693Z,14.46
2024-03-09T12:36:29.699Z,14.35
2024-03-09T12:39:10.665Z,14.44
2024-03-09T12:41:41.735Z,14.71
2024-03-09T12:44:11.729Z,14.69
2024-03-09T12:46:41.578Z,14.80
2024-03-09T12:49:13.293Z,14.82
2024-03-09T12:51:43.507Z,14.50
2024-03-09T12:54:11.762Z,14.48
2024-03-09T12:56:40.152Z,14.44
2024-03-09T12:59:12.850Z,14.21
2024-03-09T13:01:45.901Z,14.29
2024-03-09T13:04:13.513Z,14.37
2024-03-09T13:06:43.307Z,14.04
2024-03-09T13:09:19.914Z,14.02
2024-03-09T13:11:48.440Z,14.00
2024-03-09T13:14:21.912Z,14.24
2024-03-09T13:16:51.058Z,14.29
2024-03-09T13:19:18.655Z,14.26
2024-03-09T13:21:53.591Z,14.85
2024-03-09T13:24:24.684Z,14.96
2024-03-09T13:27:07.051Z,14.92
2024-03-09T13:29:34.199Z,14.60
2024-03-09T13:32:03.561Z,14.61
2024-03-09T13:34:32.386Z,14.67
2024-03-09T13:37:01.492Z,14.82
2024-03-09T13:39:35.901Z,14.80
2024-03-09T13:42:10.723Z,14.84
2024-03-09T13:44:38.674Z,14.48
2024-03-09T13:47:07.203Z,14.79
2024-03-09T13:49:34.741Z,14.64
2024-03-09T13:52:04.277Z,14.77
2024-03-09T13:54:31.468Z,14.75
2024-03-09T13:56:58.554Z,15.01
2024-03-09T13:59:25.905Z,14.80
2024-03-09T14:01:53.342Z,14.71
2024-03-09T14:04:24.994Z,14.91
2024-03-09T14:07:06.762Z,14.85
2024-03-09T14:09:50.118Z,14.58
2024-03-09T14:12:21.386Z,14.76
2024-03-09T14:14:53.785Z,14.85
2024-03-09T14:17:21.787Z,14.62
2024-03-09T14:19:49.104Z,14.53
2024-03-09T14:22:16.844Z,14.69
2024-03-09T14:24:48.515Z,14.51
2024-03-09T14:27:21.767Z,14.58
2024-03-09T14:29:49.777Z,14.62
2024-03-09T14:32:20.153Z,14.62
2024-03-09T14:34:47.491Z,14.64
2024-03-09T14:37:14.616Z,14.59
2024-03-09T14:39:44.459Z,14.59
2024-03-09T14:42:19.232Z,14.51
2024-03-09T14:44:46.837Z,14.47
2024-03-09T14:47:15.168Z,14.30
2024-03-09T14:49:43.422Z,14.33
2024-03-09T14:52:13.827Z,14.38
2024-03-09T14:54:41.206Z,14.24
2024-03-09T14:57:08.907Z,14.18
2024-03-09T14:59:37.781Z,14.19
2024-03-09T15:02:09.039Z,14.12
2024-03-09T15:04:36.296Z,14.19
2024-03-09T15:07:07.144Z,14.17
2024-03-09T15:09:34.440Z,14.03
2024-03-09T15:12:01.610Z,13.98
2024-03-09T15:14:28.967Z,14.06
2024-03-09T15:17:06.272Z,14.08
2024-03-09T15:19:33.624Z,14.10
2024-03-09T15:22:02.317Z,14.20
2024-03-09T15:24:29.576Z,14.17
2024-03-09T15:26:57.024Z,14.27
2024-03-09T15:29:25.253Z,14.19
2024-03-09T15:31:52.782Z,14.26
2024-03-09T15:34:21.297Z,14.02
2024-03-09T15:36:48.897Z,14.11
2024-03-09T15:39:16.065Z,14.11
2024-03-09T15:41:43.757Z,13.89
2024-03-09T15:44:10.870Z,13.95
2024-03-09T15:46:38.189Z,13.81
2024-03-09T15:49:07.311Z,13.78
2024-03-09T15:51:37.289Z,13.95
2024-03-09T15:54:05.239Z,13.79
2024-03-09T15:56:34.752Z,13.83
2024-03-09T15:59:05.963Z,13.86
2024-03-09T16:01:36.907Z,13.70
2024-03-09T16:04:11.427Z,13.75
2024-03-09T16:06:40.396Z,13.70
2024-03-09T16:09:13.582Z,13.74
2024-03-09T16:11:42.766Z,13.73
2024-03-09T16:14:13.798Z,13.77
2024-03-09T16:16:41.627Z,13.90
2024-03-09T16:19:08.991Z,13.72
2024-03-09T16:21:38.709Z,13.83
2024-03-09T16:24:08.995Z,13.71
2024-03-09T16:26:36.443Z,13.72
2024-03-09T16:29:06.242Z,13.64
2024-03-09T16:31:37.291Z,13.62
2024-03-09T16:34:08.013Z,13.57
2024-03-09T16:36:35.621Z,13.50
2024-03-09T16:39:04.635Z,13.58
2024-03-09T16:41:34.306Z,13.50
2024-03-09T16:44:05.016Z,13.43
2024-03-09T16:46:32.727Z,13.33
2024-03-09T16:49:00.015Z,13.40
2024-03-09T16:51:27.140Z,13.41
2024-03-09T16:53:54.920Z,13.30
2024-03-09T16:56:22.548Z,13.27
2024-03-09T16:58:51.299Z,13.28
2024-03-09T17:01:18.612Z,13.19
2024-03-09T17:03:47.996Z,13.15
2024-03-09T17:06:17.420Z,13.04
2024-03-09T17:08:45.716Z,13.06
2024-03-09T17:11:15.649Z,13.01
2024-03-09T17:13:48.517Z,13.02
2024-03-09T17:16:19.337Z,12.94
2024-03-09T17:18:49.430Z,12.88
2024-03-09T17:21:18.435Z,12.85
2024-03-09T17:23:47.071Z,12.88
2024-03-09T17:26:21.539Z,12.84
2024-03-09T17:28:52.661Z,12.88
2024-03-09T17:31:22.282Z,12.88
2024-03-09T17:33:50.006Z,12.85
2024-03-09T17:36:18.634Z,12.76
2024-03-09T17:38:49.146Z,12.70
2024-03-09T17:41:17.324Z,12.65
2024-03-09T17:43:44.660Z,12.62
2024-03-09T17:46:11.806Z,12.58
2024-03-09T17:48:42.420Z,12.53
2024-03-09T17:51:13.178Z,12.60
2024-03-09T17:53:40.413Z,12.64
2024-03-09T17:56:07.703Z,12.61
2024-03-09T17:58:34.980Z,12.52
2024-03-09T18:01:06.172Z,12.55
2024-03-09T18:03:33.569Z,12.52
2024-03-09T18:06:02.203Z,12.59
2024-03-09T18:08:34.975Z,12.58
2024-03-09T18:11:03.217Z,12.57
2024-03-09T18:13:31.232Z,12.50
2024-03-09T18:15:59.818Z,12.53
2024-03-09T18:18:27.021Z,12.52
2024-03-09T18:20:55.472Z,12.46
2024-03-09T18:23:24.328Z,12.41
2024-03-09T18:25:53.227Z,12.42
2024-03-09T18:28:20.501Z,12.42
2024-03-09T18:30:47.700Z,12.44
2024-03-09T18:33:16.480Z,12.43
2024-03-09T18:35:43.879Z,12.42
2024-03-09T18:38:15.508Z,12.45
2024-03-09T18:40:44.459Z,12.52
2024-03-09T18:43:11.694Z,12.51
2024-03-09T18:45:38.967Z,12.58
2024-03-09T18:48:07.428Z,12.59
2024-03-09T18:50:40.103Z,12.56
2024-03-09T18:53:07.212Z,12.53
2024-03-09T18:55:38.704Z,12.44
2024-03-09T18:58:09.734Z,12.34
2024-03-09T19:00:37.803Z,12.25
2024-03-09T19:03:08.090Z,12.25
2024-03-09T19:05:35.583Z,12.21
2024-03-09T19:08:05.494Z,12.23
2024-03-09T19:10:33.843Z,12.28
2024-03-09T19:13:05.514Z,12.27
2024-03-09T19:15:36.583Z,12.20
2024-03-09T19:18:04.985Z,12.17
2024-03-09T19:20:36.201Z,12.05
2024-03-09T19:23:04.509Z,12.05
2024-03-09T19:25:32.153Z,11.99
2024-03-09T19:28:00.097Z,11.98
2024-03-09T19:30:27.860Z,11.95
2024-03-09T19:32:56.823Z,11.99
2024-03-09T19:35:27.096Z,11.99
2024-03-09T19:37:59.311Z,12.04
2024-03-09T19:40:27.973Z,12.11
2024-03-09T19:42:56.286Z,12.09
2024-03-09T19:45:25.201Z,12.09
2024-03-09T19:47:53.428Z,12.02
2024-03-09T19:50:22.783Z,12.02
2024-03-09T19:52:50.638Z,12.05
2024-03-09T19:55:20.616Z,12.04
2024-03-09T19:57:48.987Z,12.07
2024-03-09T20:00:24.862Z,12.01
2024-03-09T20:02:53.836Z,11.97
2024-03-09T20:05:23.418Z,11.95
2024-03-09T20:07:57.208Z,12.01
2024-03-09T20:10:26.711Z,11.85
2024-03-09T20:12:57.631Z,11.92
2024-03-09T20:15:28.365Z,11.86
2024-03-09T20:17:56.584Z,11.87
2024-03-09T20:20:28.353Z,11.79
2024-03-09T20:22:56.264Z,11.73
2024-03-09T20:25:27.944Z,11.71
2024-03-09T20:27:56.568Z,11.70
2024-03-09T20:30:24.534Z,11.68
2024-03-09T20:32:52.226Z,11.76
2024-03-09T20:35:20.048Z,11.71
2024-03-09T20:37:49.509Z,11.77
2024-03-09T20:40:18.475Z,11.70
2024-03-09T20:42:49.491Z,11.67
2024-03-09T20:45:18.612Z,11.54
2024-03-09T20:47:46.514Z,11.50
2024-03-09T20:50:15.095Z,11.44
2024-03-09T20:52:43.744Z,11.44
2024-03-09T20:55:12.729Z,11.37
2024-03-09T20:57:39.917Z,11.33
2024-03-09T21:00:11.526Z,11.37
2024-03-09T21:02:40.820Z,11.35
2024-03-09T21:05:09.294Z,11.42
2024-03-09T21:07:36.622Z,11.33
2024-03-09T21:10:04.532Z,11.36
2024-03-09T21:12:33.284Z,11.23
2024-03-09T21:15:00.556Z,11.18
2024-03-09T21:17:28.356Z,11.25
2024-03-09T21:19:55.703Z,11.31
2024-03-09T21:22:23.000Z,11.23
2024-03-09T21:24:51.698Z,11.17
2024-03-09T21:27:18.833Z,11.26
2024-03-09T21:29:47.225Z,11.24
2024-03-09T21:32:14.308Z,11.27
2024-03-09T21:34:41.497Z,11.33
2024-03-09T21:37:10.823Z,11.23
2024-03-09T21:39:38.094Z,11.29
2024-03-09T21:42:07.293Z,11.24
2024-03-09T21:44:34.398Z,11.18
2024-03-09T21:47:03.041Z,11.29
2024-03-09T21:49:31.877Z,11.28
2024-03-09T21:51:59.785Z,11.24
2024-03-09T21:54:27.008Z,11.29
2024-03-09T21:56:54.091Z,11.30
2024-03-09T21:59:23.400Z,11.25
2024-03-09T22:01:50.496Z,11.31
2024-03-09T22:04:19.011Z,11.26
2024-03-09T22:06:46.142Z,11.21
2024-03-09T22:09:14.005Z,11.18
2024-03-09T22:11:41.165Z,11.21
2024-03-09T22:14:08.688Z,11.21
2024-03-09T22:16:35.772Z,11.18
2024-03-09T22:19:02.893Z,11.21
2024-03-09T22:21:31.547Z,11.19
2024-03-09T22:23:58.803Z,11.13
2024-03-09T22:26:28.496Z,11.12
2024-03-09T22:28:56.933Z,11.11
2024-03-09T22:31:26.470Z,11.08
2024-03-09T22:33:54.791Z,11.09
2024-03-09T22:36:22.227Z,11.11
2024-03-09T22:38:50.897Z,11.12
2024-03-09T22:41:18.407Z,11.10
2024-03-09T22:43:45.585Z,11.01
2024-03-09T22:46:12.688Z,10.96
2024-03-09T22:48:39.917Z,10.95
2024-03-09T22:51:07.764Z,10.97
2024-03-09T22:53:35.060Z,10.95
2024-03-09T22:56:04.491Z,10.94
2024-03-09T22:58:32.369Z,10.87
2024-03-09T23:01:22.336Z,10.93
2024-03-09T23:03:49.613Z,10.91
2024-03-09T23:06:17.211Z,10.94
2024-03-09T23:08:44.836Z,10.88
2024-03-09T23:11:14.268Z,10.87
2024-03-09T23:13:42.107Z,10.86
2024-03-09T23:16:09.438Z,10.82
2024-03-09T23:18:37.726Z,10.82
2024-03-09T23:21:05.234Z,10.86
2024-03-09T23:23:32.383Z,10.77
2024-03-09T23:25:59.518Z,10.72
2024-03-09T23:28:28.060Z,10.74
2024-03-09T23:30:55.217Z,10.79
2024-03-09T23:33:24.085Z,10.80
2024-03-09T23:35:51.320Z,10.77
2024-03-09T23:38:20.109Z,10.73
2024-03-09T23:40:47.348Z,10.71
2024-03-09T23:43:14.527Z,10.68
2024-03-09T23:45:42.926Z,10.63
2024-03-09T23:48:10.131Z,10.64
2024-03-09T23:50:37.489Z,10.69
2024-03-09T23:53:04.958Z,10.68
2024-03-09T23:55:32.703Z,10.62
2024-03-09T23:57:59.815Z,10.52
